Time;durP1;ratioP1;P1;durP2;ratioP2;P2;SDS_P1;SDS_P2;PMS_P1;PMS_P2;Temp;Humidity;BMP_temperature;BMP_pressure;BME280_temperature;BME280_humidity;BME280_pressure;Samples;Min_cycle;Max_cycle;Signal;HPM_P1;HPM_P2
2021/12/09 00:00:13;;;;;;;10.43;5.18;;;;;;;0.94;83.26;100164.59;1029607;28;20055;-82
2021/12/09 00:00:56;;;;;;;17.65;5.35;;;;;;;0.97;82.85;100163.00;1027415;28;20057;-82
2021/12/09 00:01:31;;;;;;;13.43;5.43;;;;;;;0.91;83.24;100154.31;1028950;28;20058;-82
2021/12/09 00:02:03;;;;;;;13.05;5.30;;;;;;;0.93;83.03;100162.84;1021983;28;20059;-82
2021/12/09 00:02:35;;;;;;;12.63;5.30;;;;;;;0.92;82.84;100161.13;1019206;29;20087;-82
2021/12/09 00:03:07;;;;;;;10.25;5.35;;;;;;;0.93;83.18;100161.97;1027004;28;20050;-82
2021/12/09 00:03:40;;;;;;;12.18;5.82;;;;;;;0.89;83.06;100166.03;1019521;29;20051;-82
2021/12/09 00:04:13;;;;;;;15.52;5.88;;;;;;;0.88;83.14;100163.41;1027449;28;20061;-82
2021/12/09 00:04:46;;;;;;;14.63;6.57;;;;;;;0.84;83.28;100156.41;1031591;28;20093;-82
2021/12/09 00:05:18;;;;;;;13.63;5.53;;;;;;;0.85;83.25;100164.13;1027323;28;20054;-82
2021/12/09 00:05:49;;;;;;;12.73;5.20;;;;;;;0.87;83.16;100162.53;1031535;28;20086;-82
2021/12/09 00:06:26;;;;;;;18.40;6.22;;;;;;;0.94;83.19;100162.06;1024103;28;20066;-82
2021/12/09 00:07:00;;;;;;;13.52;5.22;;;;;;;0.93;83.19;100156.91;1024664;28;20431;-82
2021/12/09 00:07:31;;;;;;;12.82;5.30;;;;;;;0.93;83.56;100162.84;1025149;28;20110;-82
2021/12/09 00:08:24;;;;;;;14.13;6.47;;;;;;;0.93;83.27;100162.84;1027119;28;20059;-82
2021/12/09 00:09:00;;;;;;;11.10;5.15;;;;;;;0.91;82.81;100161.91;1023436;29;20054;-82
2021/12/09 00:09:31;;;;;;;12.45;6.03;;;;;;;0.88;83.52;100159.19;1027540;28;20170;-82
2021/12/09 00:10:06;;;;;;;11.63;5.55;;;;;;;0.92;83.30;100160.22;1023501;28;20534;-82
2021/12/09 00:10:38;;;;;;;14.60;5.70;;;;;;;0.89;83.08;100160.94;1019563;29;20066;-83
2021/12/09 00:11:10;;;;;;;14.90;5.88;;;;;;;0.86;83.03;100159.91;1017804;29;20591;-82
2021/12/09 00:11:51;;;;;;;14.88;6.18;;;;;;;0.88;83.42;100163.41;1019700;29;20098;-82
2021/12/09 00:12:23;;;;;;;;;;;;;;;0.84;83.27;100158.94;1019100;29;20092;-82
2021/12/09 00:12:55;;;;;;;16.83;6.22;;;;;;;0.83;83.58;100163.16;1023202;28;19969;-82
2021/12/09 00:13:27;;;;;;;15.18;5.40;;;;;;;0.84;83.83;100162.38;1015575;29;20048;-82
2021/12/09 00:13:58;;;;;;;17.77;5.55;;;;;;;0.84;83.58;100164.91;1020445;29;20079;-82
2021/12/09 00:14:32;;;;;;;15.93;5.97;;;;;;;0.84;83.57;100164.03;1031367;28;20133;-83
2021/12/09 00:15:04;;;;;;;13.85;6.50;;;;;;;0.81;83.69;100162.19;1027401;28;20051;-82
2021/12/09 00:15:35;;;;;;;16.02;6.00;;;;;;;0.84;83.83;100157.31;1024441;28;20051;-82
2021/12/09 00:16:07;;;;;;;13.07;5.93;;;;;;;0.86;83.55;100158.25;1019516;29;20054;-83
2021/12/09 00:16:38;;;;;;;11.77;5.88;;;;;;;0.88;83.62;100166.81;1023443;29;20122;-82
2021/12/09 00:17:10;;;;;;;16.85;6.45;;;;;;;0.85;83.38;100158.16;1021405;29;20044;-82
2021/12/09 00:17:42;;;;;;;11.07;5.57;;;;;;;0.85;83.69;100164.13;1025291;28;20051;-82
2021/12/09 00:18:14;;;;;;;17.55;6.35;;;;;;;0.86;83.62;100158.25;1026655;28;20042;-82
2021/12/09 00:18:45;;;;;;;12.15;5.93;;;;;;;0.89;83.55;100160.94;1026335;28;20055;-82
2021/12/09 00:19:17;;;;;;;14.07;6.30;;;;;;;0.89;83.42;100158.41;1030358;28;20074;-82
2021/12/09 00:19:48;;;;;;;20.38;7.07;;;;;;;0.92;83.87;100161.13;1027363;28;20662;-82
2021/12/09 00:20:20;;;;;;;13.27;6.18;;;;;;;0.97;83.63;100163.00;1024097;28;20039;-82
2021/12/09 00:20:52;;;;;;;15.20;6.25;;;;;;;0.93;83.87;100157.78;1027554;28;20054;-82
2021/12/09 00:21:24;;;;;;;14.63;6.40;;;;;;;0.93;83.26;100160.31;1023392;28;20062;-83
2021/12/09 00:21:56;;;;;;;15.07;6.13;;;;;;;0.98;83.58;100160.56;1025680;28;20451;-82
2021/12/09 00:22:28;;;;;;;14.07;6.38;;;;;;;0.97;83.13;100157.94;1020241;29;20048;-82
2021/12/09 00:23:00;;;;;;;16.35;6.40;;;;;;;1.00;83.80;100163.19;1031391;28;20144;-83
2021/12/09 00:23:31;;;;;;;16.20;6.00;;;;;;;1.00;83.28;100160.66;1022977;29;20054;-83
2021/12/09 00:24:03;;;;;;;14.70;6.72;;;;;;;1.00;83.23;100163.19;1018971;29;20423;-83
2021/12/09 00:24:35;;;;;;;18.48;6.35;;;;;;;0.99;83.56;100161.44;1027454;28;20042;-83
2021/12/09 00:25:07;;;;;;;13.70;5.80;;;;;;;0.98;83.56;100159.69;1025678;28;20053;-83
2021/12/09 00:25:39;;;;;;;15.15;5.75;;;;;;;0.94;83.37;100164.59;1023551;29;20043;-83
2021/12/09 00:26:10;;;;;;;15.02;6.25;;;;;;;0.98;83.44;100155.47;1017528;29;20134;-83
2021/12/09 00:26:44;;;;;;;16.80;6.10;;;;;;;0.93;83.50;100157.78;1025925;28;20057;-83
2021/12/09 00:27:16;;;;;;;13.32;5.88;;;;;;;0.89;83.53;100155.88;1026224;28;20050;-83
2021/12/09 00:27:48;;;;;;;13.48;6.03;;;;;;;0.89;83.19;100150.81;1023227;28;20043;-82
2021/12/09 00:28:19;;;;;;;13.70;6.32;;;;;;;0.97;83.38;100152.88;1024956;28;20098;-83
2021/12/09 00:28:51;;;;;;;18.98;6.15;;;;;;;1.03;83.49;100160.78;1019322;29;20142;-83
2021/12/09 00:29:23;;;;;;;17.52;6.00;;;;;;;0.93;83.66;100161.97;1022302;28;20402;-82
2021/12/09 00:29:54;;;;;;;16.50;6.18;;;;;;;1.04;83.39;100157.47;1021441;28;20187;-82
2021/12/09 00:30:26;;;;;;;15.20;6.03;;;;;;;1.01;83.68;100159.84;1011701;29;20084;-82
2021/12/09 00:30:58;;;;;;;16.20;6.60;;;;;;;1.01;83.20;100162.38;1026176;28;20521;-83
2021/12/09 00:31:29;;;;;;;12.85;5.63;;;;;;;1.01;83.75;100164.91;1023472;29;20051;-82
2021/12/09 00:32:01;;;;;;;15.50;6.78;;;;;;;1.03;83.34;100168.41;1023273;28;20047;-83
2021/12/09 00:32:35;;;;;;;14.23;6.30;;;;;;;1.04;83.53;100175.22;1027386;28;20051;-83
2021/12/09 00:33:06;;;;;;;12.50;5.90;;;;;;;1.01;83.15;100164.91;1022464;29;20135;-83
2021/12/09 00:33:43;;;;;;;10.70;5.78;;;;;;;0.98;83.52;100172.38;1020233;29;20435;-83
2021/12/09 00:34:16;;;;;;;13.38;6.00;;;;;;;0.97;83.70;100171.47;1027818;28;20197;-82
2021/12/09 00:34:49;;;;;;;13.52;6.05;;;;;;;0.94;83.31;100173.88;1015291;29;20041;-83
2021/12/09 00:35:27;;;;;;;14.32;6.15;;;;;;;0.98;83.19;100169.84;1019562;29;20472;-83
2021/12/09 00:36:00;;;;;;;13.43;5.55;;;;;;;0.94;83.45;100172.19;1024086;29;20058;-82
2021/12/09 00:36:38;;;;;;;14.05;5.82;;;;;;;0.93;83.47;100167.06;1018859;29;20126;-83
2021/12/09 00:37:22;;;;;;;13.48;5.63;;;;;;;0.92;83.38;100176.34;1022040;29;20062;-83
2021/12/09 00:37:58;;;;;;;17.25;6.13;;;;;;;0.97;83.87;100173.16;1024236;29;20062;-82
2021/12/09 00:38:39;;;;;;;11.95;5.95;;;;;;;0.97;83.74;100168.94;1023242;29;20054;-82
2021/12/09 00:39:12;;;;;;;13.02;6.35;;;;;;;1.00;83.84;100164.06;1024047;29;20062;-83
2021/12/09 00:39:44;;;;;;;12.15;6.50;;;;;;;1.01;83.76;100170.88;1020952;29;20110;-82
2021/12/09 00:40:16;;;;;;;13.70;5.93;;;;;;;1.02;83.66;100167.53;1023275;29;20047;-83
2021/12/09 00:40:48;;;;;;;12.63;5.75;;;;;;;1.01;83.74;100175.06;1021483;29;20134;-82
2021/12/09 00:41:20;;;;;;;13.02;6.40;;;;;;;0.98;83.50;100175.78;1020129;29;20040;-83
2021/12/09 00:41:51;;;;;;;13.00;6.40;;;;;;;1.00;83.52;100175.88;1028184;28;20077;-83
2021/12/09 00:42:25;;;;;;;17.08;6.13;;;;;;;1.01;83.72;100170.88;1020101;29;20040;-82
2021/12/09 00:42:57;;;;;;;13.38;5.82;;;;;;;1.04;83.54;100172.69;1020150;29;20048;-82
2021/12/09 00:43:28;;;;;;;17.85;6.90;;;;;;;1.00;83.46;100176.72;1024154;29;20268;-83
2021/12/09 00:44:00;;;;;;;14.85;6.47;;;;;;;1.02;83.26;100166.66;1021057;29;20051;-82
2021/12/09 00:44:32;;;;;;;13.35;6.38;;;;;;;0.98;83.55;100174.91;1028009;28;20062;-83
2021/12/09 00:45:03;;;;;;;15.05;5.93;;;;;;;1.02;83.36;100172.63;1025343;28;20184;-82
2021/12/09 00:45:35;;;;;;;14.10;6.13;;;;;;;1.03;83.53;100178.56;1025057;28;20055;-83
2021/12/09 00:46:07;;;;;;;16.15;6.20;;;;;;;0.99;83.13;100174.13;1019738;29;20049;-82
2021/12/09 00:46:39;;;;;;;17.90;6.90;;;;;;;1.03;83.69;100178.56;1016104;29;20048;-83
2021/12/09 00:47:11;;;;;;;16.25;6.22;;;;;;;1.06;83.61;100173.66;1018088;29;20067;-83
2021/12/09 00:47:43;;;;;;;15.18;6.13;;;;;;;1.06;83.74;100176.19;1022982;28;20060;-83
2021/12/09 00:48:15;;;;;;;12.20;6.50;;;;;;;1.03;83.44;100181.97;1020206;29;20122;-83
2021/12/09 00:48:47;;;;;;;15.00;6.40;;;;;;;1.04;83.60;100180.31;1027798;28;20046;-82
2021/12/09 00:49:20;;;;;;;13.68;5.88;;;;;;;1.02;83.68;100176.81;1029370;28;20182;-82
2021/12/09 00:49:55;;;;;;;12.38;6.10;;;;;;;1.05;83.79;100182.06;1029202;28;20050;-82
2021/12/09 00:50:26;;;;;;;13.40;6.10;;;;;;;1.01;83.65;100175.06;1028116;28;20046;-82
2021/12/09 00:50:58;;;;;;;16.60;6.93;;;;;;;1.08;83.71;100183.09;1020441;29;20063;-82
2021/12/09 00:51:30;;;;;;;16.83;6.38;;;;;;;1.07;83.64;100175.41;1028159;28;20047;-82
2021/12/09 00:52:02;;;;;;;13.60;6.78;;;;;;;1.16;83.27;100170.78;1028595;28;20038;-82
2021/12/09 00:52:33;;;;;;;11.38;5.88;;;;;;;1.14;83.30;100172.41;1020609;29;20142;-83
2021/12/09 00:53:05;;;;;;;16.55;6.50;;;;;;;1.11;83.52;100177.28;1021522;29;20059;-83
2021/12/09 00:53:37;;;;;;;11.15;5.82;;;;;;;1.09;82.99;100183.94;1020420;29;20086;-82
2021/12/09 00:54:08;;;;;;;10.30;5.57;;;;;;;1.10;83.39;100180.63;1016343;29;20067;-83
2021/12/09 00:54:42;;;;;;;11.63;5.30;;;;;;;1.09;83.16;100183.94;1022360;28;20130;-82
2021/12/09 00:55:14;;;;;;;14.48;5.90;;;;;;;1.08;82.97;100187.31;1020827;29;20216;-82
2021/12/09 00:55:46;;;;;;;14.23;6.07;;;;;;;1.05;83.23;100187.97;1028141;28;20406;-82
2021/12/09 00:56:17;;;;;;;13.85;6.20;;;;;;;1.05;83.37;100194.72;1027526;28;20055;-82
2021/12/09 00:56:49;;;;;;;13.60;6.15;;;;;;;1.04;83.25;100185.38;1026980;28;20047;-82
2021/12/09 00:57:20;;;;;;;14.63;5.90;;;;;;;1.04;83.46;100182.84;1023826;29;20166;-83
2021/12/09 00:57:52;;;;;;;12.95;5.95;;;;;;;1.03;83.56;100188.69;1024037;28;20058;-82
2021/12/09 00:58:24;;;;;;;10.38;5.32;;;;;;;1.03;83.22;100184.53;1020003;28;20130;-82
2021/12/09 00:58:55;;;;;;;16.45;6.40;;;;;;;1.04;82.90;100190.44;1027960;28;20054;-82
2021/12/09 00:59:27;;;;;;;17.05;6.35;;;;;;;0.95;83.53;100186.63;1031325;28;20053;-83
2021/12/09 00:59:59;;;;;;;15.52;5.60;;;;;;;0.98;83.46;100185.91;1028174;28;20125;-82
2021/12/09 01:00:31;;;;;;;11.23;6.10;;;;;;;0.99;83.38;100182.59;1023920;29;20145;-82
2021/12/09 01:01:04;;;;;;;15.40;5.88;;;;;;;1.04;83.63;100185.38;1024648;28;20146;-82
2021/12/09 01:01:36;;;;;;;9.63;5.45;;;;;;;1.05;83.03;100192.19;1028098;28;20058;-82
2021/12/09 01:02:10;;;;;;;15.70;6.40;;;;;;;1.05;83.20;100192.19;1021734;29;20058;-82
2021/12/09 01:02:41;;;;;;;12.35;6.03;;;;;;;1.04;82.98;100190.44;1023726;28;20383;-82
2021/12/09 01:03:13;;;;;;;15.55;6.18;;;;;;;1.04;82.92;100191.31;1032013;28;20050;-82
2021/12/09 01:03:45;;;;;;;14.75;5.85;;;;;;;1.07;83.23;100190.63;1024011;29;20047;-82
2021/12/09 01:04:17;;;;;;;17.10;5.85;;;;;;;1.08;83.04;100190.69;1028181;28;20106;-83
2021/12/09 01:04:48;;;;;;;13.50;5.53;;;;;;;1.08;82.87;100189.84;1026253;28;20059;-82
2021/12/09 01:05:22;;;;;;;16.63;6.35;;;;;;;1.05;82.51;100192.19;1029469;28;20501;-82
2021/12/09 01:05:54;;;;;;;11.63;5.97;;;;;;;1.03;83.11;100188.69;1020046;29;20048;-82
2021/12/09 01:06:43;;;;;;;12.50;6.07;;;;;;;1.04;83.04;100196.38;1024215;29;20388;-83
2021/12/09 01:07:15;;;;;;;14.40;5.90;;;;;;;1.04;83.12;100192.97;1027976;28;20089;-82
2021/12/09 01:07:47;;;;;;;12.32;6.35;;;;;;;1.01;83.15;100188.63;1022540;28;20054;-82
2021/12/09 01:08:18;;;;;;;17.27;6.07;;;;;;;1.01;82.78;100195.34;1019253;29;20043;-82
2021/12/09 01:08:50;;;;;;;11.32;5.78;;;;;;;1.05;82.63;100197.28;1028066;28;20521;-83
2021/12/09 01:09:22;;;;;;;13.80;6.75;;;;;;;1.07;83.04;100201.63;1018915;28;20071;-82
2021/12/09 01:09:53;;;;;;;11.48;5.47;;;;;;;1.11;82.87;100197.59;1028196;28;20054;-82
2021/12/09 01:10:25;;;;;;;18.00;6.07;;;;;;;1.08;82.58;100197.44;1031741;28;20057;-82
2021/12/09 01:10:57;;;;;;;12.70;5.65;;;;;;;1.14;82.22;100197.75;1024500;28;20051;-82
2021/12/09 01:11:28;;;;;;;14.48;5.82;;;;;;;1.11;82.14;100197.59;1024066;29;20047;-82
2021/12/09 01:12:00;;;;;;;11.90;5.75;;;;;;;1.05;82.48;100197.28;1022360;29;20054;-82
2021/12/09 01:12:32;;;;;;;17.05;6.10;;;;;;;1.12;82.35;100194.25;1028044;28;20197;-82
2021/12/09 01:13:04;;;;;;;14.88;6.53;;;;;;;1.10;82.31;100190.78;1019633;29;20055;-82
2021/12/09 01:13:36;;;;;;;13.93;6.20;;;;;;;1.11;82.47;100202.66;1027439;28;20089;-82
2021/12/09 01:14:07;;;;;;;10.55;6.00;;;;;;;1.08;82.92;100197.44;1025765;28;20169;-82
2021/12/09 01:14:39;;;;;;;14.57;5.60;;;;;;;1.17;82.30;100192.84;1020262;28;20142;-82
2021/12/09 01:15:12;;;;;;;14.77;5.95;;;;;;;1.18;82.35;100189.50;1019994;29;20427;-82
2021/12/09 01:15:43;;;;;;;11.27;6.15;;;;;;;1.14;83.02;100190.16;1027970;28;20422;-82
2021/12/09 01:16:15;;;;;;;14.00;6.07;;;;;;;1.12;82.65;100194.25;1029239;28;20077;-82
2021/12/09 01:16:47;;;;;;;13.13;5.68;;;;;;;1.10;82.84;100198.38;1020071;29;20047;-82
2021/12/09 01:17:18;;;;;;;9.68;5.15;;;;;;;1.14;82.57;100191.81;1027088;28;20178;-82
2021/12/09 01:17:50;;;;;;;12.05;5.63;;;;;;;1.15;82.75;100194.44;1023990;28;20087;-82
2021/12/09 01:18:22;;;;;;;15.80;5.63;;;;;;;1.16;82.45;100187.69;1027053;28;20047;-82
2021/12/09 01:18:54;;;;;;;15.52;6.20;;;;;;;1.15;82.88;100189.38;1027553;28;20062;-82
2021/12/09 01:19:25;;;;;;;15.05;6.55;;;;;;;1.15;82.42;100189.38;1027678;28;20090;-82
2021/12/09 01:19:57;;;;;;;14.25;5.68;;;;;;;1.15;82.28;100191.91;1031714;28;20042;-82
2021/12/09 01:20:29;;;;;;;16.23;6.40;;;;;;;1.12;82.35;100186.66;1032082;28;20065;-82
2021/12/09 01:21:00;;;;;;;15.38;6.13;;;;;;;1.12;83.05;100189.19;1027351;28;20055;-82
2021/12/09 01:21:32;;;;;;;14.80;6.95;;;;;;;1.13;82.38;100183.34;1032070;28;20509;-82
2021/12/09 01:22:04;;;;;;;13.90;6.25;;;;;;;1.12;82.52;100188.34;1028120;28;20051;-82
2021/12/09 01:22:43;;;;;;;14.23;6.18;;;;;;;1.09;83.28;100183.94;1019982;29;20099;-82
2021/12/09 01:23:14;;;;;;;13.07;6.13;;;;;;;1.13;83.03;100183.34;1027952;28;20106;-82
2021/12/09 01:23:46;;;;;;;12.00;5.78;;;;;;;1.08;82.84;100182.22;1023958;29;20446;-82
2021/12/09 01:24:18;;;;;;;15.50;5.90;;;;;;;1.10;82.40;100183.16;1025282;28;20187;-82
2021/12/09 01:24:49;;;;;;;12.77;6.07;;;;;;;1.09;82.63;100189.03;1024810;28;20047;-82
2021/12/09 01:25:22;;;;;;;15.82;5.55;;;;;;;1.05;82.88;100187.13;1023363;29;20501;-82
2021/12/09 01:26:00;;;;;;;15.20;6.25;;;;;;;1.06;82.87;100178.72;1023938;29;20082;-82
2021/12/09 01:26:32;;;;;;;10.25;5.60;;;;;;;1.05;82.54;100187.13;1020396;29;20055;-82
2021/12/09 01:27:04;;;;;;;13.35;5.88;;;;;;;0.98;82.65;100179.97;1025118;28;20050;-82
2021/12/09 01:27:39;;;;;;;14.27;5.85;;;;;;;0.95;82.77;100180.69;1029575;28;20098;-82
2021/12/09 01:28:22;;;;;;;13.00;6.25;;;;;;;0.97;83.18;100183.31;1023848;29;20056;-82
2021/12/09 01:28:59;;;;;;;13.93;6.07;;;;;;;0.91;83.22;100182.19;1024155;29;20422;-82
2021/12/09 01:29:42;;;;;;;15.32;6.43;;;;;;;0.95;83.45;100181.56;1028008;28;20057;-82
2021/12/09 01:30:16;;;;;;;16.73;6.03;;;;;;;0.95;82.98;100181.56;1027277;28;20137;-82
2021/12/09 01:30:50;;;;;;;13.70;5.78;;;;;;;0.93;83.52;100182.28;1024153;28;20086;-82
2021/12/09 01:31:26;;;;;;;12.40;5.38;;;;;;;0.95;83.00;100191.69;1027357;28;20122;-82
2021/12/09 01:32:02;;;;;;;14.75;6.05;;;;;;;0.97;83.01;100184.16;1024058;28;20058;-82
2021/12/09 01:32:33;;;;;;;12.23;5.63;;;;;;;1.00;83.31;100186.03;1015267;29;20573;-82
2021/12/09 01:33:06;;;;;;;15.30;6.15;;;;;;;0.97;83.34;100183.31;1023750;29;20050;-82
2021/12/09 01:33:38;;;;;;;12.45;6.13;;;;;;;0.98;83.61;100190.13;1023478;29;20141;-82
2021/12/09 01:34:10;;;;;;;15.05;6.50;;;;;;;0.95;83.83;100181.56;1023961;28;20054;-82
2021/12/09 01:34:41;;;;;;;16.35;6.50;;;;;;;0.95;83.26;100188.31;1031889;28;20046;-82
2021/12/09 01:35:13;;;;;;;18.52;7.00;;;;;;;0.92;83.52;100181.41;1022081;29;20521;-82
2021/12/09 01:35:48;;;;;;;14.35;6.85;;;;;;;0.92;83.52;100181.41;1031398;28;20049;-82
2021/12/09 01:36:19;;;;;;;15.23;6.68;;;;;;;0.99;84.02;100187.66;1031958;28;20050;-82
2021/12/09 01:36:51;;;;;;;16.15;6.90;;;;;;;0.99;83.70;100186.81;1027530;28;20098;-82
2021/12/09 01:37:23;;;;;;;13.30;6.53;;;;;;;0.96;83.36;100182.44;1019919;29;20047;-82
2021/12/09 01:37:58;;;;;;;19.35;6.63;;;;;;;0.97;83.36;100188.38;1032004;28;20050;-83
2021/12/09 01:38:32;;;;;;;15.55;6.82;;;;;;;0.98;83.33;100195.19;1023556;28;20552;-82
2021/12/09 01:39:05;;;;;;;15.90;6.47;;;;;;;1.01;83.07;100185.19;1027844;28;20062;-83
2021/12/09 01:39:37;;;;;;;12.82;6.43;;;;;;;0.94;82.95;100189.94;1028127;28;20130;-83
2021/12/09 01:40:09;;;;;;;17.58;6.72;;;;;;;0.94;83.11;100191.63;1025647;28;20086;-82
2021/12/09 01:40:41;;;;;;;13.85;6.25;;;;;;;0.89;83.27;100191.38;1023248;29;20063;-83
2021/12/09 01:41:12;;;;;;;15.73;6.35;;;;;;;0.92;83.55;100185.59;1023395;29;20088;-82
2021/12/09 01:41:44;;;;;;;13.05;6.60;;;;;;;0.96;83.57;100195.13;1023953;29;20435;-83
2021/12/09 01:42:17;;;;;;;12.75;6.47;;;;;;;0.92;83.17;100189.03;1021382;29;20051;-82
2021/12/09 01:42:48;;;;;;;12.20;6.72;;;;;;;0.94;83.51;100192.50;1023974;29;20518;-82
2021/12/09 01:43:21;;;;;;;13.27;5.90;;;;;;;0.95;83.28;100194.25;1023902;28;20170;-82
2021/12/09 01:43:54;;;;;;;11.30;6.05;;;;;;;0.93;83.61;100193.28;1021131;29;20047;-82
2021/12/09 01:44:26;;;;;;;13.80;6.50;;;;;;;0.90;83.23;100192.25;1027769;28;20094;-82
2021/12/09 01:44:57;;;;;;;13.98;6.60;;;;;;;0.87;83.11;100192.97;1019768;29;20122;-82
2021/12/09 01:45:29;;;;;;;18.13;6.60;;;;;;;0.85;83.73;100194.56;1027852;28;20145;-83
2021/12/09 01:46:05;;;;;;;14.15;5.95;;;;;;;0.88;83.83;100191.31;1024248;28;20051;-82
2021/12/09 01:46:37;;;;;;;13.95;5.93;;;;;;;0.89;83.35;100190.53;1022851;29;20455;-82
2021/12/09 01:47:09;;;;;;;18.00;6.45;;;;;;;0.82;83.36;100194.38;1031687;28;20513;-82
2021/12/09 01:47:41;;;;;;;12.82;6.13;;;;;;;0.83;83.62;100191.06;1020055;29;20484;-82
2021/12/09 01:48:13;;;;;;;16.83;6.65;;;;;;;0.81;83.35;100197.72;1023004;29;20149;-82
2021/12/09 01:48:45;;;;;;;13.13;6.22;;;;;;;0.77;83.46;100200.88;1023787;28;20051;-82
2021/12/09 01:49:17;;;;;;;14.82;6.75;;;;;;;0.81;83.53;100191.78;1015567;29;20138;-82
2021/12/09 01:49:49;;;;;;;12.60;6.38;;;;;;;0.78;83.11;100200.09;1022544;29;20079;-82
2021/12/09 01:50:21;;;;;;;18.42;6.53;;;;;;;0.78;83.58;100207.69;1020636;29;20043;-83
2021/12/09 01:50:52;;;;;;;13.55;6.50;;;;;;;0.81;83.91;100197.72;1023965;29;20159;-82
2021/12/09 01:51:25;;;;;;;15.55;6.47;;;;;;;0.82;83.50;100199.47;1027463;28;20051;-82
2021/12/09 01:51:57;;;;;;;17.40;6.75;;;;;;;0.80;83.56;100203.56;1019286;29;20040;-82
2021/12/09 01:52:28;;;;;;;11.27;5.53;;;;;;;0.79;83.29;100199.28;1023279;29;20051;-82
2021/12/09 01:53:01;;;;;;;15.98;6.03;;;;;;;0.84;83.45;100202.97;1019760;29;20047;-82
2021/12/09 01:53:32;;;;;;;11.07;6.53;;;;;;;0.83;83.70;100206.28;1019854;29;20538;-82
2021/12/09 01:54:04;;;;;;;16.08;6.50;;;;;;;0.83;83.83;100203.75;1023337;29;20527;-82
2021/12/09 01:54:36;;;;;;;13.85;7.05;;;;;;;0.81;83.41;100199.38;1026578;28;20137;-83
2021/12/09 01:55:08;;;;;;;19.55;7.30;;;;;;;0.82;83.61;100199.47;1021430;29;20147;-83
2021/12/09 01:55:39;;;;;;;17.73;6.78;;;;;;;0.83;83.67;100201.22;1027727;28;20047;-83
2021/12/09 01:56:21;;;;;;;16.65;6.60;;;;;;;0.84;83.56;100202.97;1026929;28;20461;-82
2021/12/09 01:56:53;;;;;;;13.40;6.47;;;;;;;0.82;83.48;100207.06;1027973;28;20062;-83
2021/12/09 01:57:25;;;;;;;16.52;6.72;;;;;;;0.82;83.71;100204.53;1026829;28;20528;-83
2021/12/09 01:57:57;;;;;;;13.30;5.70;;;;;;;0.81;83.60;100202.78;1025680;28;20058;-83
2021/12/09 01:58:28;;;;;;;14.18;6.85;;;;;;;0.77;83.49;100203.41;1027543;28;20422;-83
2021/12/09 01:59:02;;;;;;;14.43;6.25;;;;;;;0.82;83.77;100198.59;1027733;28;20094;-82
2021/12/09 01:59:34;;;;;;;16.08;6.15;;;;;;;0.77;83.55;100203.41;1023801;29;20061;-83
2021/12/09 02:00:11;;;;;;;13.93;5.80;;;;;;;0.77;83.57;100200.88;1028029;28;20043;-83
2021/12/09 02:00:43;;;;;;;13.60;6.40;;;;;;;0.72;83.68;100202.28;1027834;28;20058;-82
2021/12/09 02:01:15;;;;;;;14.45;6.25;;;;;;;0.71;83.71;100201.41;1023749;28;20057;-82
2021/12/09 02:01:47;;;;;;;13.48;6.13;;;;;;;0.72;83.81;100202.28;1039895;28;20432;-82
2021/12/09 02:02:19;;;;;;;16.05;6.55;;;;;;;0.67;83.71;100191.88;1035739;28;20045;-82
2021/12/09 02:02:51;;;;;;;15.02;6.43;;;;;;;0.67;83.70;100198.63;1031445;28;20080;-82
2021/12/09 02:03:29;;;;;;;16.00;6.38;;;;;;;0.65;83.99;100200.19;1023702;29;20054;-83
2021/12/09 02:04:02;;;;;;;14.63;6.65;;;;;;;0.62;84.11;100201.78;1023742;29;20146;-82
2021/12/09 02:04:34;;;;;;;12.50;6.10;;;;;;;0.67;83.59;100203.69;1019870;29;20051;-83
2021/12/09 02:05:06;;;;;;;15.35;7.13;;;;;;;0.66;84.08;100207.00;1021205;29;20047;-82
2021/12/09 02:05:41;;;;;;;17.67;6.55;;;;;;;0.62;83.87;100206.88;1016038;29;20079;-83
2021/12/09 02:06:12;;;;;;;15.15;6.93;;;;;;;0.66;84.16;100196.88;1018027;29;20494;-82
2021/12/09 02:06:44;;;;;;;20.42;7.13;;;;;;;0.66;84.14;100199.41;1023952;29;20058;-82
2021/12/09 02:07:16;;;;;;;16.02;6.90;;;;;;;0.67;83.90;100201.16;1026572;28;20059;-82
2021/12/09 02:07:47;;;;;;;14.45;6.78;;;;;;;0.69;84.52;100197.06;1027776;28;20057;-83
2021/12/09 02:08:20;;;;;;;22.15;6.80;;;;;;;0.68;84.22;100201.22;1030124;28;20100;-82
2021/12/09 02:08:51;;;;;;;17.33;6.20;;;;;;;0.62;84.04;100201.78;1027738;28;20410;-82
2021/12/09 02:09:23;;;;;;;14.73;8.30;;;;;;;0.65;84.09;100200.19;1023612;29;20183;-82
2021/12/09 02:09:55;;;;;;;14.52;7.07;;;;;;;0.65;83.84;100195.13;1019831;29;20044;-83
2021/12/09 02:10:26;;;;;;;11.57;6.25;;;;;;;0.64;84.11;100194.25;1031105;28;20053;-82
2021/12/09 02:10:58;;;;;;;15.80;6.95;;;;;;;0.61;84.46;100191.56;1023741;29;20055;-82
2021/12/09 02:11:30;;;;;;;12.98;6.13;;;;;;;0.64;84.58;100196.81;1016903;29;20523;-82
2021/12/09 02:12:03;;;;;;;12.60;7.40;;;;;;;0.66;84.39;100191.81;1024883;28;20058;-83
2021/12/09 02:12:35;;;;;;;20.85;7.88;;;;;;;0.71;84.48;100187.88;1031334;28;20533;-82
2021/12/09 02:13:06;;;;;;;21.45;7.07;;;;;;;0.67;84.35;100183.41;1027775;28;20053;-82
2021/12/09 02:13:38;;;;;;;23.95;6.88;;;;;;;0.63;84.26;100198.44;1027391;28;20514;-83
2021/12/09 02:14:10;;;;;;;18.83;6.95;;;;;;;0.68;84.23;100190.22;1023103;29;20058;-82
2021/12/09 02:14:43;;;;;;;17.27;7.25;;;;;;;0.67;84.48;100202.03;1022248;29;20104;-83
2021/12/09 02:15:15;;;;;;;11.07;6.30;;;;;;;0.66;84.47;100191.81;1027722;28;20061;-82
2021/12/09 02:15:47;;;;;;;17.85;7.00;;;;;;;0.69;84.08;100192.84;1027506;28;20512;-82
2021/12/09 02:16:20;;;;;;;15.35;6.30;;;;;;;0.63;84.28;100195.06;1022467;29;21873;-82
2021/12/09 02:16:52;;;;;;;11.25;6.28;;;;;;;0.59;84.27;100191.47;1018987;29;20135;-82
2021/12/09 02:17:25;;;;;;;14.27;7.45;;;;;;;0.62;84.45;100194.19;1019737;29;20070;-82
2021/12/09 02:17:58;;;;;;;17.92;7.10;;;;;;;0.60;84.69;100198.28;1023363;29;20098;-82
2021/12/09 02:18:29;;;;;;;16.17;6.70;;;;;;;0.59;84.46;100200.75;1019294;29;20114;-83
2021/12/09 02:19:01;;;;;;;11.88;5.88;;;;;;;0.61;84.48;100194.97;1027103;28;20546;-82
2021/12/09 02:19:33;;;;;;;13.48;6.43;;;;;;;0.60;84.52;100194.88;1023925;29;20058;-83
2021/12/09 02:20:05;;;;;;;14.40;6.80;;;;;;;0.59;84.30;100199.09;1027764;28;20046;-83
2021/12/09 02:20:38;;;;;;;16.27;7.32;;;;;;;0.62;84.32;100186.59;1023620;29;20047;-82
2021/12/09 02:21:14;;;;;;;13.50;7.47;;;;;;;0.69;84.73;100184.38;1021243;29;20051;-82
2021/12/09 02:21:46;;;;;;;13.77;7.18;;;;;;;0.63;84.79;100185.78;1031591;28;20074;-83
2021/12/09 02:22:18;;;;;;;15.88;7.43;;;;;;;0.63;84.65;100183.22;1030503;28;20096;-83
2021/12/09 02:22:51;;;;;;;11.82;6.07;;;;;;;0.63;84.58;100198.44;1032229;28;20173;-82
2021/12/09 02:23:23;;;;;;;15.48;6.47;;;;;;;0.67;84.76;100196.09;1023313;29;20071;-83
2021/12/09 02:23:58;;;;;;;16.50;6.78;;;;;;;0.68;84.82;100191.09;1028420;28;20054;-82
2021/12/09 02:24:29;;;;;;;14.55;6.40;;;;;;;0.67;84.54;100194.41;1024678;29;20138;-82
2021/12/09 02:25:01;;;;;;;13.20;6.07;;;;;;;0.67;84.54;100194.41;1028425;28;20489;-83
2021/12/09 02:25:33;;;;;;;19.33;7.47;;;;;;;0.72;84.54;100198.09;1028596;28;20058;-83
2021/12/09 02:26:04;;;;;;;17.45;7.78;;;;;;;0.76;84.79;100194.06;1018608;29;20132;-82
2021/12/09 02:26:40;;;;;;;18.05;6.70;;;;;;;0.71;84.68;100191.28;1019444;29;20138;-82
2021/12/09 02:27:12;;;;;;;14.30;6.50;;;;;;;0.71;84.92;100195.47;1017710;29;20068;-83
2021/12/09 02:27:44;;;;;;;14.32;6.80;;;;;;;0.71;84.57;100191.28;1023250;29;20142;-83
2021/12/09 02:28:16;;;;;;;12.70;6.82;;;;;;;0.69;84.81;100197.91;1019546;29;20047;-83
2021/12/09 02:28:48;;;;;;;16.85;7.32;;;;;;;0.74;85.10;100200.69;1023629;29;20466;-82
2021/12/09 02:29:22;;;;;;;13.93;6.68;;;;;;;0.73;84.88;100193.88;1027658;28;20043;-83
2021/12/09 02:29:54;;;;;;;16.75;7.25;;;;;;;0.76;84.86;100199.13;1023752;28;20134;-82
2021/12/09 02:30:28;;;;;;;14.68;8.40;;;;;;;0.85;84.74;100198.75;1019878;29;20062;-83
2021/12/09 02:31:00;;;;;;;13.65;6.95;;;;;;;0.78;84.51;100193.34;1022841;29;20097;-82
2021/12/09 02:31:32;;;;;;;15.68;7.38;;;;;;;0.85;84.73;100199.63;1016910;29;20119;-82
2021/12/09 02:32:03;;;;;;;23.90;6.57;;;;;;;0.83;84.55;100193.59;1022870;29;20055;-83
2021/12/09 02:32:35;;;;;;;14.82;6.97;;;;;;;0.84;84.46;100194.47;1019649;29;20102;-83